Time;durP1;ratioP1;P1;durP2;ratioP2;P2;SDS_P1;SDS_P2;PMS_P1;PMS_P2;Temp;Humidity;BMP_temperature;BMP_pressure;BME280_temperature;BME280_humidity;BME280_pressure;Samples;Min_cycle;Max_cycle;Signal;HPM_P1;HPM_P2
2021/05/01 00:00:31;;;;;;;21.97;17.67;;;10.60;1.00;;;;;;4902885;29;20499;-78
2021/05/01 00:02:59;;;;;;;22.97;17.90;;;10.70;1.00;;;;;;4906013;29;20472;-78
2021/05/01 00:05:26;;;;;;;23.33;17.50;;;10.70;1.00;;;;;;4906688;29;20534;-78
2021/05/01 00:07:54;;;;;;;26.30;17.30;;;10.60;1.00;;;;;;4891333;29;20466;-77
2021/05/01 00:10:21;;;;;;;21.70;16.17;;;10.70;1.00;;;;;;4899479;29;22451;-77
2021/05/01 00:12:48;;;;;;;22.87;15.80;;;10.70;99.90;;;;;;4895958;29;20470;-77
2021/05/01 00:15:16;;;;;;;20.87;16.20;;;10.70;99.90;;;;;;4893609;29;20529;-80
2021/05/01 00:17:43;;;;;;;23.63;17.40;;;10.70;99.90;;;;;;4896653;29;20462;-77
2021/05/01 00:20:12;;;;;;;21.47;16.33;;;10.70;1.00;;;;;;4892069;29;20562;-76
2021/05/01 00:22:39;;;;;;;23.43;17.77;;;10.70;99.90;;;;;;4893671;29;20466;-77
2021/05/01 00:25:08;;;;;;;22.13;15.90;;;10.70;99.90;;;;;;4891210;29;20476;-76
2021/05/01 00:27:35;;;;;;;23.67;17.03;;;10.80;1.00;;;;;;4902617;29;20543;-77
2021/05/01 00:30:03;;;;;;;21.17;16.63;;;10.80;1.00;;;;;;4899511;29;20507;-78
2021/05/01 00:32:33;;;;;;;23.20;15.90;;;10.80;1.00;;;;;;4891638;29;20471;-78
2021/05/01 00:35:01;;;;;;;25.90;17.80;;;10.80;1.00;;;;;;4898493;29;20471;-78
2021/05/01 00:37:29;;;;;;;25.27;17.17;;;10.80;1.00;;;;;;4897618;29;21020;-77
2021/05/01 00:39:56;;;;;;;22.03;15.60;;;10.80;1.00;;;;;;4893453;29;20503;-78
2021/05/01 00:42:23;;;;;;;20.60;16.57;;;10.80;1.00;;;;;;4895291;29;22628;-77
2021/05/01 00:44:50;;;;;;;24.30;16.83;;;10.80;1.00;;;;;;4902516;29;20504;-77
2021/05/01 00:47:17;;;;;;;24.20;17.67;;;10.80;1.00;;;;;;4906740;29;20462;-76
2021/05/01 00:49:45;;;;;;;25.80;17.60;;;10.80;1.00;;;;;;4897544;29;20498;-77
2021/05/01 00:52:12;;;;;;;25.00;17.80;;;10.80;1.00;;;;;;4897906;29;20535;-77
2021/05/01 00:54:40;;;;;;;26.30;17.13;;;10.80;1.00;;;;;;4898208;29;22496;-78
2021/05/01 00:57:07;;;;;;;25.07;17.63;;;10.90;1.00;;;;;;4897311;29;20468;-77
2021/05/01 00:59:35;;;;;;;27.53;18.10;;;10.90;1.00;;;;;;4900473;29;20497;-78
2021/05/01 01:02:03;;;;;;;21.07;15.77;;;10.80;1.00;;;;;;4896000;29;20461;-76
2021/05/01 01:04:32;;;;;;;28.23;17.90;;;10.90;1.00;;;;;;4896721;29;20480;-77
2021/05/01 01:06:59;;;;;;;25.17;18.37;;;10.80;1.00;;;;;;4912092;29;20901;-76
2021/05/01 01:09:27;;;;;;;24.20;17.37;;;11.00;1.00;;;;;;4897286;29;20542;-79
2021/05/01 01:11:55;;;;;;;27.07;18.07;;;10.80;1.00;;;;;;4898873;29;20526;-78
2021/05/01 01:14:22;;;;;;;22.43;16.97;;;10.80;1.00;;;;;;4901399;29;20478;-79
2021/05/01 01:16:49;;;;;;;25.33;17.57;;;10.80;1.00;;;;;;4892037;29;20490;-77
2021/05/01 01:19:17;;;;;;;26.60;18.40;;;10.80;1.00;;;;;;4894010;29;20594;-78
2021/05/01 01:21:46;;;;;;;24.57;17.20;;;10.90;1.00;;;;;;4908169;29;20480;-78
2021/05/01 01:24:15;;;;;;;24.73;18.37;;;10.90;1.00;;;;;;4894378;29;20461;-78
2021/05/01 01:26:43;;;;;;;24.80;16.80;;;10.80;1.00;;;;;;4897647;29;20464;-78
2021/05/01 01:29:14;;;;;;;23.37;15.93;;;10.80;1.00;;;;;;4896585;29;21570;-77
2021/05/01 01:31:41;;;;;;;26.73;18.97;;;10.90;1.00;;;;;;4898551;29;20528;-77
2021/05/01 01:34:09;;;;;;;33.80;20.83;;;10.90;1.00;;;;;;4897254;29;20507;-76
2021/05/01 01:36:36;;;;;;;29.77;19.20;;;10.90;1.00;;;;;;4894815;29;20796;-76
2021/05/01 01:39:04;;;;;;;25.63;18.30;;;10.90;1.00;;;;;;4897016;29;20485;-76
2021/05/01 01:41:32;;;;;;;25.13;19.17;;;10.90;1.00;;;;;;4894070;29;20837;-77
2021/05/01 01:43:59;;;;;;;28.07;18.13;;;10.90;1.00;;;;;;4893761;29;20537;-77
2021/05/01 01:46:26;;;;;;;25.07;18.23;;;10.80;1.00;;;;;;4893906;29;20485;-75
2021/05/01 01:48:53;;;;;;;28.90;18.07;;;10.90;1.00;;;;;;4905060;29;20519;-76
2021/05/01 01:51:20;;;;;;;25.17;18.00;;;10.80;1.00;;;;;;4900866;29;20524;-78
2021/05/01 01:53:48;;;;;;;28.67;20.10;;;10.80;1.00;;;;;;4913969;29;20458;-78
2021/05/01 01:56:15;;;;;;;24.37;19.13;;;10.90;1.00;;;;;;4903633;29;20484;-76
2021/05/01 01:58:43;;;;;;;23.73;16.93;;;10.90;1.00;;;;;;4898333;29;20489;-77
2021/05/01 02:01:11;;;;;;;24.10;17.70;;;10.90;1.00;;;;;;4898652;29;20473;-76
2021/05/01 02:03:38;;;;;;;19.00;14.43;;;11.00;1.00;;;;;;4898720;29;21311;-74
2021/05/01 02:06:05;;;;;;;18.00;13.37;;;11.00;99.90;;;;;;4895587;29;20463;-75
2021/05/01 02:08:33;;;;;;;16.10;12.47;;;11.00;99.90;;;;;;4903289;29;21455;-77
2021/05/01 02:11:00;;;;;;;17.13;13.07;;;11.00;99.90;;;;;;4892617;29;20465;-76
2021/05/01 02:13:27;;;;;;;20.67;14.67;;;11.00;99.90;;;;;;4899544;29;20476;-76
2021/05/01 02:15:56;;;;;;;19.93;14.70;;;11.10;99.90;;;;;;4900080;29;20467;-78
2021/05/01 02:18:23;;;;;;;17.03;12.80;;;10.90;99.90;;;;;;4905632;29;20526;-77
2021/05/01 02:20:50;;;;;;;21.73;15.33;;;10.90;99.90;;;;;;4899143;29;20474;-79
2021/05/01 02:23:17;;;;;;;21.23;14.53;;;10.90;99.90;;;;;;4902535;29;20534;-78
2021/05/01 02:25:44;;;;;;;19.63;14.73;;;10.90;99.90;;;;;;4901367;29;20470;-77
2021/05/01 02:28:11;;;;;;;20.07;15.80;;;10.80;1.00;;;;;;4919853;29;20474;-78
2021/05/01 02:30:38;;;;;;;20.20;14.93;;;10.80;1.00;;;;;;4897497;29;20498;-76
2021/05/01 02:33:06;;;;;;;22.80;15.30;;;10.80;1.00;;;;;;4919784;29;20476;-77
2021/05/01 02:35:36;;;;;;;29.90;17.13;;;10.80;1.00;;;;;;4904072;29;20479;-77
2021/05/01 02:38:03;;;;;;;24.07;16.30;;;10.90;1.00;;;;;;4903742;29;21154;-76
2021/05/01 02:40:31;;;;;;;22.60;18.17;;;10.90;1.00;;;;;;4897856;29;20487;-76
2021/05/01 02:42:59;;;;;;;24.03;17.10;;;10.90;1.00;;;;;;4905424;29;20478;-77
2021/05/01 02:45:26;;;;;;;24.60;17.43;;;10.90;1.00;;;;;;4919471;29;20836;-76
2021/05/01 02:47:53;;;;;;;24.77;17.37;;;10.80;1.00;;;;;;4895696;29;20821;-78
2021/05/01 02:50:21;;;;;;;22.30;15.53;;;10.80;1.00;;;;;;4897338;29;21202;-76
2021/05/01 02:52:49;;;;;;;25.13;17.77;;;10.80;1.00;;;;;;4893050;29;20468;-76
2021/05/01 02:55:17;;;;;;;21.23;16.00;;;11.00;1.00;;;;;;4897916;29;20458;-79
2021/05/01 02:57:44;;;;;;;21.30;16.00;;;10.80;1.00;;;;;;4897579;29;20613;-76
2021/05/01 03:00:14;;;;;;;23.50;16.13;;;10.80;1.00;;;;;;4913412;29;22131;-76
2021/05/01 03:02:41;;;;;;;20.87;15.20;;;10.80;1.00;;;;;;4891545;29;20470;-77
2021/05/01 03:05:10;;;;;;;20.90;14.70;;;10.90;1.00;;;;;;4896132;29;20547;-78
2021/05/01 03:07:38;;;;;;;19.90;13.70;;;10.90;1.00;;;;;;4900257;29;20547;-79
2021/05/01 03:10:08;;;;;;;17.50;13.30;;;11.00;1.00;;;;;;4892449;29;21436;-77
2021/05/01 03:12:35;;;;;;;20.33;12.87;;;10.80;1.00;;;;;;4890931;29;20476;-78
2021/05/01 03:15:04;;;;;;;18.60;13.37;;;10.80;1.00;;;;;;4896258;29;20475;-78
2021/05/01 03:17:31;;;;;;;18.10;13.97;;;10.90;99.90;;;;;;4904569;29;20476;-77
2021/05/01 03:19:58;;;;;;;17.93;11.97;;;10.80;1.00;;;;;;4893455;29;20491;-75
2021/05/01 03:22:25;;;;;;;17.87;12.60;;;10.80;1.00;;;;;;4908435;29;20476;-77
2021/05/01 03:24:54;;;;;;;15.77;11.20;;;10.70;99.90;;;;;;4894247;29;20557;-77
2021/05/01 03:27:21;;;;;;;16.37;12.47;;;10.80;99.90;;;;;;4890739;29;20459;-79
2021/05/01 03:29:49;;;;;;;14.60;11.30;;;10.60;99.90;;;;;;4906457;29;20502;-78
2021/05/01 03:32:16;;;;;;;19.00;12.60;;;10.70;99.90;;;;;;4897794;29;20556;-77
2021/05/01 03:34:44;;;;;;;17.23;12.33;;;10.80;99.90;;;;;;4895299;29;20587;-77
2021/05/01 03:37:11;;;;;;;16.87;12.27;;;10.80;99.90;;;;;;4897262;29;20486;-76
2021/05/01 03:39:39;;;;;;;17.97;12.37;;;10.70;99.90;;;;;;4901150;29;20497;-79
2021/05/01 03:42:07;;;;;;;16.17;11.53;;;10.80;99.90;;;;;;4894763;29;20449;-76
2021/05/01 03:44:34;;;;;;;17.80;12.43;;;10.80;99.90;;;;;;4895389;29;20523;-79
2021/05/01 03:47:02;;;;;;;16.00;11.53;;;10.70;99.90;;;;;;4898308;29;20473;-78
2021/05/01 03:49:29;;;;;;;16.50;11.77;;;10.70;99.90;;;;;;4896241;29;20956;-78
2021/05/01 03:51:57;;;;;;;13.70;10.43;;;10.70;99.90;;;;;;4894201;29;20469;-77
2021/05/01 03:54:24;;;;;;;14.90;11.03;;;10.80;99.90;;;;;;4899008;29;20504;-77
2021/05/01 03:56:51;;;;;;;17.83;12.00;;;10.80;99.90;;;;;;4899149;29;20477;-77
2021/05/01 03:59:19;;;;;;;19.00;12.73;;;10.70;99.90;;;;;;4900082;29;20487;-78
2021/05/01 04:01:47;;;;;;;19.73;13.57;;;10.60;99.90;;;;;;4894495;29;20901;-79
2021/05/01 04:04:14;;;;;;;21.13;14.17;;;10.80;99.90;;;;;;4893809;29;20471;-78
2021/05/01 04:06:41;;;;;;;18.80;13.20;;;10.60;1.00;;;;;;4902118;29;21285;-80
2021/05/01 04:09:08;;;;;;;20.63;14.47;;;10.50;99.90;;;;;;4903235;29;20504;-78
2021/05/01 04:11:35;;;;;;;18.10;12.77;;;10.60;99.90;;;;;;4897919;29;20932;-77
2021/05/01 04:14:03;;;;;;;20.73;14.03;;;10.70;99.90;;;;;;4917959;29;20475;-79
2021/05/01 04:16:31;;;;;;;19.67;12.80;;;10.70;99.90;;;;;;4896297;29;20474;-77
2021/05/01 04:18:58;;;;;;;21.27;14.50;;;10.70;99.90;;;;;;4906387;29;20871;-78
2021/05/01 04:21:25;;;;;;;18.20;12.77;;;10.70;99.90;;;;;;4900571;29;20466;-78
2021/05/01 04:23:52;;;;;;;20.57;14.47;;;10.70;99.90;;;;;;4906218;29;20467;-78
2021/05/01 04:26:20;;;;;;;18.47;13.80;;;10.70;99.90;;;;;;4907342;29;20463;-77
2021/05/01 04:28:47;;;;;;;18.07;13.33;;;10.70;99.90;;;;;;4904372;29;20476;-77
2021/05/01 04:31:15;;;;;;;21.77;14.13;;;10.70;99.90;;;;;;4911633;29;20466;-79
2021/05/01 04:33:43;;;;;;;20.57;14.30;;;10.70;99.90;;;;;;4902636;29;20500;-77
2021/05/01 04:36:10;;;;;;;22.07;13.67;;;10.80;99.90;;;;;;4897110;29;20476;-76
2021/05/01 04:38:37;;;;;;;18.77;14.20;;;10.70;99.90;;;;;;4903094;29;20474;-77
2021/05/01 04:41:04;;;;;;;20.57;14.33;;;10.70;99.90;;;;;;4897480;29;20454;-77
2021/05/01 04:43:32;;;;;;;19.30;15.03;;;10.70;99.90;;;;;;4903356;29;20468;-78
2021/05/01 04:45:59;;;;;;;17.60;12.00;;;10.70;99.90;;;;;;4902626;29;20473;-78
2021/05/01 04:48:29;;;;;;;21.63;14.97;;;10.70;99.90;;;;;;4891963;29;21359;-77
2021/05/01 04:50:57;;;;;;;24.30;16.43;;;10.80;99.90;;;;;;4904764;29;22940;-78
2021/05/01 04:53:25;;;;;;;18.67;14.07;;;10.70;99.90;;;;;;4896727;29;20542;-78
2021/05/01 04:55:52;;;;;;;18.57;14.77;;;10.90;99.90;;;;;;4911420;29;20476;-75
2021/05/01 04:58:23;;;;;;;24.03;16.07;;;10.80;99.90;;;;;;4895332;29;20471;-77
2021/05/01 05:00:51;;;;;;;22.53;14.93;;;10.70;99.90;;;;;;4912211;29;20813;-75
2021/05/01 05:03:18;;;;;;;23.30;16.27;;;10.70;99.90;;;;;;4896446;29;20475;-75
2021/05/01 05:05:45;;;;;;;20.30;15.13;;;10.70;99.90;;;;;;4900013;29;20477;-79
2021/05/01 05:08:13;;;;;;;26.90;16.13;;;10.70;99.90;;;;;;4896672;29;20474;-77
2021/05/01 05:10:40;;;;;;;26.80;17.23;;;10.80;99.90;;;;;;4894332;29;20537;-76
2021/05/01 05:13:07;;;;;;;25.70;17.63;;;10.80;99.90;;;;;;4895347;29;21107;-77
2021/05/01 05:15:35;;;;;;;26.27;16.70;;;10.80;99.90;;;;;;4896973;29;20466;-76
2021/05/01 05:18:02;;;;;;;23.53;15.97;;;10.80;99.90;;;;;;4896297;29;20464;-77
2021/05/01 05:20:29;;;;;;;23.23;16.50;;;10.70;99.90;;;;;;4895190;29;20500;-77
2021/05/01 05:22:57;;;;;;;22.63;15.97;;;10.70;1.00;;;;;;4897033;29;20468;-77
2021/05/01 05:25:25;;;;;;;24.33;15.63;;;10.80;1.00;;;;;;4899892;29;21070;-77
2021/05/01 05:27:52;;;;;;;24.27;17.00;;;10.70;99.90;;;;;;4888360;29;20586;-76
2021/05/01 05:30:20;;;;;;;24.60;15.23;;;10.70;99.90;;;;;;4900431;29;20502;-79
2021/05/01 05:32:47;;;;;;;23.00;17.43;;;10.80;99.90;;;;;;4897811;29;20474;-79
2021/05/01 05:35:14;;;;;;;22.95;18.00;;;10.70;99.90;;;;;;4900870;29;20478;-78
2021/05/01 05:37:42;;;;;;;26.30;16.67;;;10.80;1.00;;;;;;4904027;29;20258;-78
2021/05/01 05:40:12;;;;;;;24.80;17.70;;;10.70;1.00;;;;;;4891594;29;20478;-78
2021/05/01 05:42:43;;;;;;;23.23;17.10;;;10.80;1.00;;;;;;4891796;29;21064;-78
2021/05/01 05:45:11;;;;;;;24.40;17.60;;;10.70;1.00;;;;;;4891518;29;20533;-78
2021/05/01 05:47:39;;;;;;;21.47;16.50;;;10.70;1.00;;;;;;4890198;29;20543;-76
2021/05/01 05:50:07;;;;;;;22.17;15.83;;;10.80;1.00;;;;;;4901270;29;20498;-75
2021/05/01 05:52:34;;;;;;;23.50;16.83;;;10.80;1.00;;;;;;4907909;29;20917;-79
2021/05/01 05:55:01;;;;;;;24.20;17.90;;;10.80;1.00;;;;;;4896907;29;20483;-75
2021/05/01 05:57:28;;;;;;;23.23;15.93;;;10.70;1.00;;;;;;4903872;29;20504;-78
2021/05/01 05:59:56;;;;;;;23.57;15.97;;;10.60;1.00;;;;;;4894435;29;20503;-78
2021/05/01 06:02:24;;;;;;;24.40;16.47;;;10.80;1.00;;;;;;4893511;29;20514;-77
2021/05/01 06:04:57;;;;;;;20.63;14.83;;;10.70;1.00;;;;;;4898924;29;20627;-78
2021/05/01 06:07:30;;;;;;;22.20;14.80;;;10.70;1.00;;;;;;4891502;29;20480;-79
2021/05/01 06:10:02;;;;;;;24.67;17.20;;;10.70;1.00;;;;;;4906015;29;20601;-77
2021/05/01 06:12:31;;;;;;;23.70;16.03;;;10.70;1.00;;;;;;4900410;29;20477;-79
2021/05/01 06:15:04;;;;;;;27.60;15.97;;;10.80;1.00;;;;;;4896249;29;20912;-77
2021/05/01 06:17:31;;;;;;;27.30;17.87;;;10.80;1.00;;;;;;4902178;29;20974;-78
2021/05/01 06:20:00;;;;;;;25.67;16.20;;;10.70;1.00;;;;;;4890520;29;21073;-78
2021/05/01 06:22:27;;;;;;;23.10;16.17;;;10.80;1.00;;;;;;4896080;29;20842;-77
2021/05/01 06:24:55;;;;;;;25.50;16.93;;;10.90;1.00;;;;;;4897982;29;20477;-78
2021/05/01 06:27:22;;;;;;;26.05;20.38;;;10.90;1.00;;;;;;4889727;29;20529;-78
2021/05/01 06:29:50;;;;;;;23.13;17.47;;;10.80;1.00;;;;;;4907110;29;20234;-80
2021/05/01 06:32:19;;;;;;;23.87;17.03;;;10.90;1.00;;;;;;4901825;29;20470;-75
2021/05/01 06:34:48;;;;;;;23.63;15.90;;;11.00;1.00;;;;;;4896650;29;21120;-76
2021/05/01 06:37:16;;;;;;;23.40;17.13;;;11.10;1.00;;;;;;4892106;29;20471;-79
2021/05/01 06:39:46;;;;;;;26.63;18.73;;;11.10;1.00;;;;;;4889430;29;21076;-79
2021/05/01 06:42:17;;;;;;;26.73;18.70;;;11.00;1.00;;;;;;4890529;29;20482;-78
2021/05/01 06:44:49;;;;;;;22.83;16.07;;;10.90;1.00;;;;;;4903103;29;20472;-78
2021/05/01 06:47:23;;;;;;;22.97;16.43;;;10.80;1.00;;;;;;4911718;29;20486;-78
2021/05/01 06:50:04;;;;;;;28.53;17.63;;;10.90;1.00;;;;;;4899073;29;20524;-78
2021/05/01 06:52:32;;;;;;;22.40;17.43;;;10.80;1.00;;;;;;4901760;29;20995;-80
2021/05/01 06:55:02;;;;;;;24.87;16.73;;;10.90;1.00;;;;;;4892227;29;20737;-78
2021/05/01 06:57:29;;;;;;;31.13;18.93;;;10.90;1.00;;;;;;4891793;29;20475;-78
2021/05/01 06:59:59;;;;;;;26.20;17.10;;;10.80;1.00;;;;;;4890240;29;20591;-80
2021/05/01 07:02:29;;;;;;;26.67;18.70;;;10.90;1.00;;;;;;4894489;29;20506;-79
2021/05/01 07:04:58;;;;;;;21.60;15.80;;;10.90;1.00;;;;;;4893800;29;20554;-79
2021/05/01 07:07:27;;;;;;;23.87;15.87;;;10.90;1.00;;;;;;4890508;29;20483;-77
2021/05/01 07:09:55;;;;;;;25.63;17.00;;;11.00;1.00;;;;;;4901649;29;20498;-79
2021/05/01 07:12:24;;;;;;;23.20;16.20;;;11.00;1.00;;;;;;4896625;29;20474;-80
2021/05/01 07:14:51;;;;;;;23.73;15.97;;;11.10;1.00;;;;;;4918097;29;20475;-81
2021/05/01 07:17:19;;;;;;;22.60;15.67;;;11.00;1.00;;;;;;4900493;29;20474;-80
2021/05/01 07:19:47;;;;;;;25.30;17.33;;;11.00;1.00;;;;;;4893019;29;20495;-78
2021/05/01 07:22:14;;;;;;;21.90;15.10;;;11.10;1.00;;;;;;4893577;29;20474;-79
2021/05/01 07:24:42;;;;;;;22.43;15.33;;;11.00;1.00;;;;;;4913346;29;20497;-78
2021/05/01 07:27:10;;;;;;;20.40;15.03;;;11.00;1.00;;;;;;4894954;29;20559;-76
2021/05/01 07:29:40;;;;;;;21.40;15.30;;;11.00;1.00;;;;;;4893909;29;20496;-79
2021/05/01 07:32:09;;;;;;;21.90;15.60;;;11.00;1.00;;;;;;4904113;29;20489;-78
2021/05/01 07:34:37;;;;;;;20.20;14.90;;;10.90;1.00;;;;;;4893636;29;21046;-78
2021/05/01 07:37:06;;;;;;;24.40;16.63;;;11.00;1.00;;;;;;4894964;29;20474;-78
2021/05/01 07:39:37;;;;;;;23.20;16.73;;;11.10;1.00;;;;;;4897252;29;20502;-79
2021/05/01 07:42:07;;;;;;;27.77;20.85;;;11.10;1.00;;;;;;4893436;29;20477;-78
2021/05/01 07:44:34;;;;;;;26.10;18.87;;;11.10;1.00;;;;;;4888280;29;20223;-78
2021/05/01 07:47:02;;;;;;;28.03;19.30;;;11.10;1.00;;;;;;4898364;29;20468;-77
2021/05/01 07:49:31;;;;;;;25.40;19.00;;;11.10;1.00;;;;;;4894514;29;20633;-80
2021/05/01 07:52:01;;;;;;;26.60;18.07;;;11.00;1.00;;;;;;4890465;29;20890;-78
2021/05/01 07:54:32;;;;;;;26.60;17.90;;;11.10;1.00;;;;;;4894328;29;20453;-78
2021/05/01 07:56:59;;;;;;;27.70;19.43;;;11.10;1.00;;;;;;4895438;29;20476;-79
2021/05/01 07:59:27;;;;;;;23.87;16.70;;;11.10;1.00;;;;;;4890402;29;20497;-79
2021/05/01 08:01:54;;;;;;;26.50;16.63;;;11.00;1.00;;;;;;4893303;29;20967;-79
2021/05/01 08:04:21;;;;;;;23.73;18.40;;;11.00;1.00;;;;;;4892125;29;20471;-79
2021/05/01 08:06:48;;;;;;;26.60;18.33;;;11.10;1.00;;;;;;4892230;29;20474;-77
2021/05/01 08:09:16;;;;;;;20.73;15.90;;;11.10;1.00;;;;;;4891247;29;20502;-82
2021/05/01 08:11:44;;;;;;;21.03;15.70;;;11.20;1.00;;;;;;4890869;29;20490;-80
2021/05/01 08:14:11;;;;;;;23.00;17.77;;;11.20;1.00;;;;;;4890696;29;21939;-78
2021/05/01 08:16:38;;;;;;;24.87;16.57;;;11.20;1.00;;;;;;4892646;29;20466;-77
2021/05/01 08:19:06;;;;;;;22.63;17.10;;;11.20;1.00;;;;;;4892413;29;20488;-77
2021/05/01 08:21:35;;;;;;;23.33;16.63;;;11.20;1.00;;;;;;4895315;29;20500;-80
2021/05/01 08:24:02;;;;;;;23.50;16.10;;;11.20;1.00;;;;;;4904874;29;20536;-77
2021/05/01 08:26:29;;;;;;;24.00;17.07;;;11.10;1.00;;;;;;4893707;29;20479;-78
2021/05/01 08:28:57;;;;;;;24.30;17.70;;;11.20;1.00;;;;;;4891120;29;20924;-77
2021/05/01 08:31:24;;;;;;;23.87;17.97;;;11.20;1.00;;;;;;4893855;29;20486;-78
2021/05/01 08:33:52;;;;;;;24.37;18.20;;;11.10;1.00;;;;;;4890755;29;21018;-80
2021/05/01 08:36:19;;;;;;;23.50;16.00;;;11.20;1.00;;;;;;4893222;29;20467;-79
2021/05/01 08:38:47;;;;;;;21.60;16.10;;;11.30;1.00;;;;;;4892329;29;22050;-77
2021/05/01 08:41:14;;;;;;;21.83;17.90;;;11.20;1.00;;;;;;4895369;29;20711;-75
2021/05/01 08:43:41;;;;;;;90.43;49.23;;;11.30;99.90;;;;;;4892085;29;20207;-75
2021/05/01 08:46:13;;;;;;;27.73;19.23;;;11.20;99.90;;;;;;4903818;29;20490;-79
2021/05/01 08:48:44;;;;;;;25.30;17.63;;;11.20;99.90;;;;;;4888667;29;20467;-77
2021/05/01 08:51:13;;;;;;;23.80;17.27;;;11.30;99.90;;;;;;4891075;29;22970;-78
2021/05/01 08:53:40;;;;;;;22.60;16.33;;;11.30;99.90;;;;;;4888780;29;20688;-80
2021/05/01 08:56:09;;;;;;;19.43;15.40;;;11.30;99.90;;;;;;4909519;29;20489;-78
2021/05/01 08:58:36;;;;;;;21.33;15.60;;;11.40;99.90;;;;;;4893884;29;20499;-75
2021/05/01 09:01:04;;;;;;;22.00;15.00;;;11.40;99.90;;;;;;4886145;29;20467;-77
2021/05/01 09:03:32;;;;;;;21.33;15.73;;;11.40;99.90;;;;;;4886237;29;20527;-77
2021/05/01 09:05:59;;;;;;;19.67;13.97;;;11.40;1.00;;;;;;4890287;29;20475;-77
2021/05/01 09:08:27;;;;;;;22.00;14.90;;;11.40;1.00;;;;;;4888938;29;20988;-77
2021/05/01 09:10:55;;;;;;;20.37;15.60;;;11.40;1.00;;;;;;4892879;29;20496;-77
2021/05/01 09:13:24;;;;;;;20.63;15.77;;;11.50;1.00;;;;;;4900231;29;20465;-77
2021/05/01 09:16:00;;;;;;;19.43;15.03;;;11.50;99.90;;;;;;4892732;29;20475;-77
2021/05/01 09:18:43;;;;;;;21.33;15.37;;;11.60;1.00;;;;;;4896483;29;20565;-76
2021/05/01 09:21:16;;;;;;;17.77;13.60;;;11.50;99.90;;;;;;4896764;29;20495;-76
2021/05/01 09:23:43;;;;;;;22.27;15.03;;;11.40;99.90;;;;;;4895338;29;21006;-76
2021/05/01 09:26:11;;;;;;;18.80;14.30;;;11.50;99.90;;;;;;4894196;29;20524;-76
2021/05/01 09:28:43;;;;;;;21.33;14.50;;;11.60;99.90;;;;;;4895246;29;20864;-75
2021/05/01 09:31:11;;;;;;;18.93;14.33;;;11.60;99.90;;;;;;4897069;29;20495;-76
2021/05/01 09:33:39;;;;;;;20.83;13.07;;;11.40;99.90;;;;;;4897751;29;21033;-74
2021/05/01 09:36:10;;;;;;;17.50;13.77;;;11.40;99.90;;;;;;4892043;29;20470;-73
2021/05/01 09:38:40;;;;;;;22.73;15.80;;;11.30;99.90;;;;;;4892054;29;20477;-75
2021/05/01 09:41:13;;;;;;;18.80;14.30;;;11.30;1.00;;;;;;4896868;29;21141;-76
2021/05/01 09:44:03;;;;;;;23.33;15.33;;;11.30;1.00;;;;;;4901450;29;20470;-74
2021/05/01 09:46:32;;;;;;;218.30;77.37;;;11.40;1.00;;;;;;4901240;29;20544;-76
2021/05/01 09:49:08;;;;;;;50.80;26.30;;;11.50;1.00;;;;;;4914584;29;21064;-76
2021/05/01 09:51:50;;;;;;;19.93;13.50;;;11.60;1.00;;;;;;4894810;29;20238;-77
2021/05/01 09:54:21;;;;;;;25.10;16.37;;;11.60;99.90;;;;;;4900626;29;20499;-77
2021/05/01 09:56:49;;;;;;;21.23;16.17;;;11.60;99.90;;;;;;4897689;29;20463;-74
2021/05/01 09:59:16;;;;;;;17.50;14.23;;;11.70;1.00;;;;;;4901700;29;20509;-74
2021/05/01 10:01:56;;;;;;;16.10;12.57;;;11.70;1.00;;;;;;4905939;29;20455;-76
2021/05/01 10:04:24;;;;;;;16.43;11.67;;;11.80;1.00;;;;;;4917814;29;20819;-77
2021/05/01 10:07:02;;;;;;;13.77;11.20;;;11.80;1.00;;;;;;4902774;29;20547;-75
2021/05/01 10:09:32;;;;;;;13.50;11.47;;;11.50;1.00;;;;;;4899401;29;20589;-75
2021/05/01 10:12:06;;;;;;;15.43;11.63;;;11.80;1.00;;;;;;4900955;29;20482;-75
2021/05/01 10:14:45;;;;;;;15.00;11.30;;;11.80;99.90;;;;;;4898942;29;20473;-73
2021/05/01 10:17:15;;;;;;;12.50;10.30;;;11.80;99.90;;;;;;4898208;29;20837;-74
2021/05/01 10:19:53;;;;;;;13.87;11.47;;;11.80;1.00;;;;;;4894907;29;20575;-77
2021/05/01 10:22:36;;;;;;;17.30;11.80;;;11.80;99.90;;;;;;4893046;29;20556;-76
2021/05/01 10:25:07;;;;;;;14.10;11.97;;;11.90;99.90;;;;;;4899537;29;20506;-76
2021/05/01 10:27:49;;;;;;;14.47;11.40;;;11.90;99.90;;;;;;4896674;29;20466;-76
2021/05/01 10:30:28;;;;;;;14.30;10.40;;;12.00;99.90;;;;;;4898317;29;20863;-75
2021/05/01 10:32:58;;;;;;;16.97;11.60;;;12.00;99.90;;;;;;4900350;29;21821;-77
2021/05/01 10:35:30;;;;;;;18.07;12.60;;;12.00;99.90;;;;;;4900808;29;20500;-77
2021/05/01 10:37:58;;;;;;;15.07;11.90;;;12.00;99.90;;;;;;4900843;29;20509;-77
2021/05/01 10:40:42;;;;;;;13.90;11.00;;;12.10;99.90;;;;;;4897321;29;20488;-76
2021/05/01 10:43:16;;;;;;;17.83;14.20;;;12.10;99.90;;;;;;4902701;29;20468;-77
2021/05/01 10:45:58;;;;;;;15.50;12.40;;;12.10;99.90;;;;;;4900088;29;20529;-77
2021/05/01 10:48:26;;;;;;;14.20;11.73;;;12.20;99.90;;;;;;4902838;29;20465;-79
2021/05/01 10:51:05;;;;;;;13.70;11.20;;;12.30;99.90;;;;;;4898961;29;20483;-76
2021/05/01 10:53:34;;;;;;;14.20;10.83;;;12.40;99.90;;;;;;4901381;29;20467;-77
2021/05/01 10:56:02;;;;;;;15.00;12.23;;;12.40;99.90;;;;;;4901587;29;20461;-78
2021/05/01 10:58:35;;;;;;;18.10;12.90;;;12.50;99.90;;;;;;4903749;29;20485;-77
2021/05/01 11:01:05;;;;;;;19.33;12.67;;;12.50;99.90;;;;;;4897419;29;20730;-76
2021/05/01 11:03:44;;;;;;;12.90;11.43;;;12.50;99.90;;;;;;4900079;29;20460;-78
2021/05/01 11:06:21;;;;;;;15.40;12.13;;;12.40;99.90;;;;;;4900236;29;20463;-75
2021/05/01 11:08:57;;;;;;;17.70;13.03;;;12.50;99.90;;;;;;4915396;29;20486;-75
2021/05/01 11:11:30;;;;;;;16.07;13.40;;;12.50;99.90;;;;;;4901172;29;20483;-75
2021/05/01 11:14:00;;;;;;;18.63;13.40;;;12.50;99.90;;;;;;4901233;29;21024;-76
2021/05/01 11:16:36;;;;;;;17.40;13.70;;;12.50;99.90;;;;;;4903155;29;20471;-75
2021/05/01 11:19:06;;;;;;;21.53;13.83;;;12.40;99.90;;;;;;4898683;29;20895;-77
2021/05/01 11:21:35;;;;;;;18.63;14.00;;;12.40;99.90;;;;;;4897801;29;20469;-75
2021/05/01 11:24:03;;;;;;;20.47;15.10;;;12.50;99.90;;;;;;4900724;29;20472;-78
2021/05/01 11:26:32;;;;;;;19.97;13.90;;;12.40;99.90;;;;;;4903219;29;20488;-76
2021/05/01 11:29:00;;;;;;;17.87;13.57;;;12.50;99.90;;;;;;4900146;29;20545;-76
2021/05/01 11:31:27;;;;;;;18.90;14.47;;;12.50;99.90;;;;;;4899952;29;21039;-76
2021/05/01 11:33:58;;;;;;;21.10;13.20;;;12.50;99.90;;;;;;4899983;29;20476;-76
2021/05/01 11:36:30;;;;;;;25.80;16.83;;;12.60;99.90;;;;;;4902826;29;20470;-77
2021/05/01 11:38:58;;;;;;;21.80;16.37;;;12.60;99.90;;;;;;4899714;29;20498;-75
2021/05/01 11:41:26;;;;;;;18.73;15.20;;;12.60;99.90;;;;;;4900062;29;20456;-76
2021/05/01 11:43:54;;;;;;;32.73;24.20;;;12.60;99.90;;;;;;4902087;29;20476;-74
2021/05/01 11:46:28;;;;;;;21.40;17.10;;;12.70;99.90;;;;;;4900255;29;20473;-78
2021/05/01 11:49:04;;;;;;;20.70;16.20;;;12.70;99.90;;;;;;4900506;29;20508;-76
2021/05/01 11:52:01;;;;;;;21.80;18.67;;;12.70;99.90;;;;;;4893025;29;20955;-76
2021/05/01 11:54:45;;;;;;;22.03;16.00;;;12.70;99.90;;;;;;4901298;29;20218;-77
2021/05/01 11:57:22;;;;;;;19.83;15.27;;;12.80;99.90;;;;;;4899951;29;20534;-77
2021/05/01 11:59:52;;;;;;;21.27;15.43;;;12.80;99.90;;;;;;4892693;29;20552;-75
2021/05/01 12:02:34;;;;;;;17.23;13.87;;;12.80;99.90;;;;;;4904416;29;20462;-78
2021/05/01 12:05:06;;;;;;;20.40;16.60;;;12.80;99.90;;;;;;4902561;29;20470;-76
2021/05/01 12:07:39;;;;;;;22.13;17.53;;;12.80;99.90;;;;;;4897598;29;20981;-77
2021/05/01 12:10:09;;;;;;;22.90;15.80;;;12.80;99.90;;;;;;4906583;29;20492;-76
2021/05/01 12:12:41;;;;;;;24.07;17.80;;;12.80;99.90;;;;;;4898707;29;20459;-76
2021/05/01 12:15:12;;;;;;;24.43;17.40;;;12.70;1.00;;;;;;4901445;29;20467;-78
2021/05/01 12:17:49;;;;;;;19.83;17.00;;;12.80;99.90;;;;;;4898137;29;20455;-77
2021/05/01 12:20:19;;;;;;;19.80;14.43;;;12.80;99.90;;;;;;4895559;29;20502;-78
2021/05/01 12:22:54;;;;;;;20.77;16.20;;;12.80;99.90;;;;;;4897343;29;20511;-78
2021/05/01 12:25:46;;;;;;;24.47;16.03;;;12.80;99.90;;;;;;4881004;29;20486;-76
2021/05/01 12:28:13;;;;;;;20.53;14.80;;;12.70;99.90;;;;;;4919253;29;20869;-77
2021/05/01 12:31:00;;;;;;;18.20;14.50;;;12.80;99.90;;;;;;4899442;29;20476;-78
2021/05/01 12:33:50;;;;;;;23.53;16.90;;;12.70;99.90;;;;;;4899758;29;20469;-77
2021/05/01 12:36:24;;;;;;;20.40;17.03;;;12.70;99.90;;;;;;4901300;29;20478;-78
2021/05/01 12:38:54;;;;;;;18.60;15.10;;;12.80;99.90;;;;;;4908198;29;21078;-77
2021/05/01 12:41:37;;;;;;;22.93;16.10;;;12.70;99.90;;;;;;4903873;29;20485;-78
2021/05/01 12:44:05;;;;;;;19.63;15.20;;;12.80;99.90;;;;;;4895384;29;20472;-75